sensor_id;sensor_type;location;lat;lon;timestamp;P1;durP1;ratioP1;P2;durP2;ratioP2
83595;SDS011;73564;45.026;38.952;2024-03-08T00:02:03;13.13;;;6.10;;
83595;SDS011;73564;45.026;38.952;2024-03-08T00:04:29;9.65;;;5.55;;
83595;SDS011;73564;45.026;38.952;2024-03-08T00:06:55;11.60;;;5.88;;
83595;SDS011;73564;45.026;38.952;2024-03-08T00:09:20;10.93;;;5.78;;
83595;SDS011;73564;45.026;38.952;2024-03-08T00:11:46;9.73;;;4.82;;
83595;SDS011;73564;45.026;38.952;2024-03-08T00:14:14;15.07;;;7.03;;
83595;SDS011;73564;45.026;38.952;2024-03-08T00:16:39;12.32;;;6.72;;
83595;SDS011;73564;45.026;38.952;2024-03-08T00:19:09;10.45;;;5.78;;
83595;SDS011;73564;45.026;38.952;2024-03-08T00:21:35;13.60;;;6.20;;
83595;SDS011;73564;45.026;38.952;2024-03-08T00:24:01;15.05;;;7.75;;
83595;SDS011;73564;45.026;38.952;2024-03-08T00:26:27;10.82;;;6.93;;
83595;SDS011;73564;45.026;38.952;2024-03-08T00:28:54;11.25;;;6.88;;
83595;SDS011;73564;45.026;38.952;2024-03-08T00:31:19;7.03;;;4.53;;
83595;SDS011;73564;45.026;38.952;2024-03-08T00:33:45;9.02;;;6.05;;
83595;SDS011;73564;45.026;38.952;2024-03-08T00:36:11;8.68;;;4.80;;
83595;SDS011;73564;45.026;38.952;2024-03-08T00:38:37;17.63;;;7.20;;
83595;SDS011;73564;45.026;38.952;2024-03-08T00:41:03;14.73;;;8.07;;
83595;SDS011;73564;45.026;38.952;2024-03-08T00:43:28;14.20;;;7.47;;
83595;SDS011;73564;45.026;38.952;2024-03-08T00:45:57;15.20;;;7.00;;
83595;SDS011;73564;45.026;38.952;2024-03-08T00:48:23;7.18;;;3.95;;
83595;SDS011;73564;45.026;38.952;2024-03-08T00:50:49;12.98;;;6.85;;
83595;SDS011;73564;45.026;38.952;2024-03-08T00:53:14;11.85;;;6.90;;
83595;SDS011;73564;45.026;38.952;2024-03-08T00:55:40;16.17;;;7.22;;
83595;SDS011;73564;45.026;38.952;2024-03-08T00:58:06;11.75;;;5.93;;
83595;SDS011;73564;45.026;38.952;2024-03-08T01:00:34;12.20;;;6.07;;
83595;SDS011;73564;45.026;38.952;2024-03-08T01:03:00;11.25;;;6.43;;
83595;SDS011;73564;45.026;38.952;2024-03-08T01:05:25;14.13;;;8.02;;
83595;SDS011;73564;45.026;38.952;2024-03-08T01:07:51;10.95;;;6.10;;
83595;SDS011;73564;45.026;38.952;2024-03-08T01:10:17;15.55;;;8.40;;
83595;SDS011;73564;45.026;38.952;2024-03-08T01:12:42;16.27;;;7.80;;
83595;SDS011;73564;45.026;38.952;2024-03-08T01:15:09;15.45;;;7.97;;
83595;SDS011;73564;45.026;38.952;2024-03-08T01:17:35;13.05;;;6.80;;
83595;SDS011;73564;45.026;38.952;2024-03-08T01:20:02;21.40;;;8.35;;
83595;SDS011;73564;45.026;38.952;2024-03-08T01:22:29;10.63;;;6.28;;
83595;SDS011;73564;45.026;38.952;2024-03-08T01:24:55;12.40;;;5.78;;
83595;SDS011;73564;45.026;38.952;2024-03-08T01:27:21;15.38;;;7.70;;
83595;SDS011;73564;45.026;38.952;2024-03-08T01:29:47;22.85;;;10.38;;
83595;SDS011;73564;45.026;38.952;2024-03-08T01:32:13;9.73;;;6.15;;
83595;SDS011;73564;45.026;38.952;2024-03-08T01:34:43;16.67;;;7.57;;
83595;SDS011;73564;45.026;38.952;2024-03-08T01:37:10;17.42;;;9.23;;
83595;SDS011;73564;45.026;38.952;2024-03-08T01:39:36;17.05;;;8.23;;
83595;SDS011;73564;45.026;38.952;2024-03-08T01:42:01;18.92;;;9.00;;
83595;SDS011;73564;45.026;38.952;2024-03-08T01:44:27;19.38;;;8.88;;
83595;SDS011;73564;45.026;38.952;2024-03-08T01:46:53;17.58;;;8.25;;
83595;SDS011;73564;45.026;38.952;2024-03-08T01:49:19;17.17;;;8.90;;
83595;SDS011;73564;45.026;38.952;2024-03-08T01:51:47;10.57;;;4.88;;
83595;SDS011;73564;45.026;38.952;2024-03-08T01:54:14;18.60;;;9.60;;
83595;SDS011;73564;45.026;38.952;2024-03-08T01:56:42;20.77;;;11.10;;
83595;SDS011;73564;45.026;38.952;2024-03-08T01:59:08;20.92;;;10.07;;
83595;SDS011;73564;45.026;38.952;2024-03-08T02:01:34;20.50;;;9.73;;
83595;SDS011;73564;45.026;38.952;2024-03-08T02:04:00;21.75;;;11.70;;
83595;SDS011;73564;45.026;38.952;2024-03-08T02:06:25;21.70;;;11.05;;
83595;SDS011;73564;45.026;38.952;2024-03-08T02:08:51;9.50;;;6.18;;
83595;SDS011;73564;45.026;38.952;2024-03-08T02:11:17;19.75;;;9.52;;
83595;SDS011;73564;45.026;38.952;2024-03-08T02:13:45;18.35;;;10.25;;
83595;SDS011;73564;45.026;38.952;2024-03-08T02:16:11;14.45;;;7.47;;
83595;SDS011;73564;45.026;38.952;2024-03-08T02:18:37;25.63;;;10.68;;
83595;SDS011;73564;45.026;38.952;2024-03-08T02:21:05;16.17;;;7.95;;
83595;SDS011;73564;45.026;38.952;2024-03-08T02:23:32;12.73;;;6.22;;
83595;SDS011;73564;45.026;38.952;2024-03-08T02:25:58;18.63;;;9.20;;
83595;SDS011;73564;45.026;38.952;2024-03-08T02:28:24;14.57;;;6.72;;
83595;SDS011;73564;45.026;38.952;2024-03-08T02:30:51;23.17;;;11.35;;
83595;SDS011;73564;45.026;38.952;2024-03-08T02:33:21;17.38;;;10.18;;
83595;SDS011;73564;45.026;38.952;2024-03-08T02:35:48;14.68;;;6.72;;
83595;SDS011;73564;45.026;38.952;2024-03-08T02:38:14;21.02;;;10.43;;
83595;SDS011;73564;45.026;38.952;2024-03-08T02:40:45;14.27;;;8.45;;
83595;SDS011;73564;45.026;38.952;2024-03-08T02:43:13;21.60;;;8.98;;
83595;SDS011;73564;45.026;38.952;2024-03-08T02:45:39;11.27;;;6.20;;
83595;SDS011;73564;45.026;38.952;2024-03-08T02:48:07;9.60;;;6.10;;
83595;SDS011;73564;45.026;38.952;2024-03-08T02:50:34;13.15;;;7.47;;
83595;SDS011;73564;45.026;38.952;2024-03-08T02:53:00;13.52;;;7.53;;
83595;SDS011;73564;45.026;38.952;2024-03-08T02:55:26;12.25;;;7.38;;
83595;SDS011;73564;45.026;38.952;2024-03-08T02:57:52;16.20;;;6.28;;
83595;SDS011;73564;45.026;38.952;2024-03-08T03:00:21;13.40;;;6.60;;
83595;SDS011;73564;45.026;38.952;2024-03-08T03:02:50;18.58;;;8.90;;
83595;SDS011;73564;45.026;38.952;2024-03-08T03:05:19;20.75;;;9.63;;
83595;SDS011;73564;45.026;38.952;2024-03-08T03:07:45;14.43;;;6.93;;
83595;SDS011;73564;45.026;38.952;2024-03-08T03:10:11;19.60;;;9.93;;
83595;SDS011;73564;45.026;38.952;2024-03-08T03:12:37;18.63;;;9.35;;
83595;SDS011;73564;45.026;38.952;2024-03-08T03:15:03;15.40;;;8.10;;
83595;SDS011;73564;45.026;38.952;2024-03-08T03:17:30;26.45;;;12.25;;
83595;SDS011;73564;45.026;38.952;2024-03-08T03:19:55;19.20;;;9.35;;
83595;SDS011;73564;45.026;38.952;2024-03-08T03:22:21;17.15;;;8.88;;
83595;SDS011;73564;45.026;38.952;2024-03-08T03:24:47;19.00;;;9.07;;
83595;SDS011;73564;45.026;38.952;2024-03-08T03:27:13;20.27;;;10.00;;
83595;SDS011;73564;45.026;38.952;2024-03-08T03:29:40;15.50;;;9.18;;
83595;SDS011;73564;45.026;38.952;2024-03-08T03:32:13;12.07;;;5.30;;
83595;SDS011;73564;45.026;38.952;2024-03-08T03:34:40;20.58;;;8.75;;
83595;SDS011;73564;45.026;38.952;2024-03-08T03:37:06;22.42;;;8.27;;
83595;SDS011;73564;45.026;38.952;2024-03-08T03:39:34;16.85;;;8.15;;
83595;SDS011;73564;45.026;38.952;2024-03-08T03:42:05;11.63;;;6.68;;
83595;SDS011;73564;45.026;38.952;2024-03-08T03:44:31;11.55;;;7.07;;
83595;SDS011;73564;45.026;38.952;2024-03-08T03:46:57;13.25;;;6.38;;
83595;SDS011;73564;45.026;38.952;2024-03-08T03:49:23;20.42;;;9.60;;
83595;SDS011;73564;45.026;38.952;2024-03-08T03:51:49;11.35;;;5.75;;
83595;SDS011;73564;45.026;38.952;2024-03-08T03:54:15;15.73;;;7.32;;
83595;SDS011;73564;45.026;38.952;2024-03-08T03:56:41;16.48;;;6.35;;
83595;SDS011;73564;45.026;38.952;2024-03-08T03:59:06;9.70;;;6.55;;
83595;SDS011;73564;45.026;38.952;2024-03-08T04:01:33;13.80;;;6.25;;
83595;SDS011;73564;45.026;38.952;2024-03-08T04:03:59;13.23;;;8.38;;
83595;SDS011;73564;45.026;38.952;2024-03-08T04:06:25;13.80;;;7.45;;
83595;SDS011;73564;45.026;38.952;2024-03-08T04:08:50;12.80;;;6.60;;
83595;SDS011;73564;45.026;38.952;2024-03-08T04:11:16;10.85;;;6.40;;
83595;SDS011;73564;45.026;38.952;2024-03-08T04:13:42;11.45;;;6.88;;
83595;SDS011;73564;45.026;38.952;2024-03-08T04:16:08;16.25;;;7.10;;
83595;SDS011;73564;45.026;38.952;2024-03-08T04:18:36;11.55;;;5.82;;
83595;SDS011;73564;45.026;38.952;2024-03-08T04:21:05;13.45;;;6.88;;
83595;SDS011;73564;45.026;38.952;2024-03-08T04:23:34;12.57;;;6.70;;
83595;SDS011;73564;45.026;38.952;2024-03-08T04:26:02;12.82;;;6.18;;
83595;SDS011;73564;45.026;38.952;2024-03-08T04:28:29;12.38;;;6.32;;
83595;SDS011;73564;45.026;38.952;2024-03-08T04:30:56;14.20;;;7.93;;
83595;SDS011;73564;45.026;38.952;2024-03-08T04:33:22;16.52;;;6.55;;
83595;SDS011;73564;45.026;38.952;2024-03-08T04:35:48;10.45;;;6.40;;
83595;SDS011;73564;45.026;38.952;2024-03-08T04:38:14;11.68;;;6.53;;
83595;SDS011;73564;45.026;38.952;2024-03-08T04:40:41;10.40;;;6.68;;
83595;SDS011;73564;45.026;38.952;2024-03-08T04:43:07;10.88;;;5.50;;
83595;SDS011;73564;45.026;38.952;2024-03-08T04:45:34;9.82;;;4.88;;
83595;SDS011;73564;45.026;38.952;2024-03-08T04:47:59;17.33;;;7.70;;
83595;SDS011;73564;45.026;38.952;2024-03-08T04:50:25;15.80;;;6.85;;
83595;SDS011;73564;45.026;38.952;2024-03-08T04:52:54;13.18;;;6.82;;
83595;SDS011;73564;45.026;38.952;2024-03-08T04:55:20;12.35;;;6.25;;
83595;SDS011;73564;45.026;38.952;2024-03-08T04:57:49;9.13;;;4.88;;
83595;SDS011;73564;45.026;38.952;2024-03-08T05:00:15;13.45;;;5.65;;
83595;SDS011;73564;45.026;38.952;2024-03-08T05:02:41;14.50;;;7.30;;
83595;SDS011;73564;45.026;38.952;2024-03-08T05:05:08;12.75;;;6.38;;
83595;SDS011;73564;45.026;38.952;2024-03-08T05:07:38;10.98;;;5.70;;
83595;SDS011;73564;45.026;38.952;2024-03-08T05:10:05;13.52;;;5.78;;
83595;SDS011;73564;45.026;38.952;2024-03-08T05:12:32;17.20;;;8.23;;
83595;SDS011;73564;45.026;38.952;2024-03-08T05:14:58;19.25;;;8.75;;
83595;SDS011;73564;45.026;38.952;2024-03-08T05:17:24;11.23;;;4.57;;
83595;SDS011;73564;45.026;38.952;2024-03-08T05:19:50;17.83;;;8.75;;
83595;SDS011;73564;45.026;38.952;2024-03-08T05:22:16;13.02;;;6.45;;
83595;SDS011;73564;45.026;38.952;2024-03-08T05:24:42;16.75;;;7.18;;
83595;SDS011;73564;45.026;38.952;2024-03-08T05:27:08;13.20;;;6.78;;
83595;SDS011;73564;45.026;38.952;2024-03-08T05:29:34;12.82;;;6.38;;
83595;SDS011;73564;45.026;38.952;2024-03-08T05:32:00;16.42;;;8.68;;
83595;SDS011;73564;45.026;38.952;2024-03-08T05:34:26;14.70;;;7.93;;
83595;SDS011;73564;45.026;38.952;2024-03-08T05:36:53;15.85;;;8.18;;
83595;SDS011;73564;45.026;38.952;2024-03-08T05:39:19;12.82;;;6.03;;
83595;SDS011;73564;45.026;38.952;2024-03-08T05:41:46;18.50;;;8.35;;
83595;SDS011;73564;45.026;38.952;2024-03-08T05:44:12;18.60;;;7.93;;
83595;SDS011;73564;45.026;38.952;2024-03-08T05:46:39;17.48;;;7.07;;
83595;SDS011;73564;45.026;38.952;2024-03-08T05:49:05;19.85;;;8.98;;
83595;SDS011;73564;45.026;38.952;2024-03-08T05:51:32;15.60;;;6.85;;
83595;SDS011;73564;45.026;38.952;2024-03-08T05:54:00;18.70;;;8.20;;
83595;SDS011;73564;45.026;38.952;2024-03-08T05:56:28;21.20;;;9.43;;
83595;SDS011;73564;45.026;38.952;2024-03-08T05:59:01;17.90;;;8.70;;
83595;SDS011;73564;45.026;38.952;2024-03-08T06:01:27;23.77;;;8.55;;
83595;SDS011;73564;45.026;38.952;2024-03-08T06:03:53;9.75;;;6.22;;
83595;SDS011;73564;45.026;38.952;2024-03-08T06:06:22;17.90;;;8.02;;
83595;SDS011;73564;45.026;38.952;2024-03-08T06:08:49;24.65;;;10.68;;
83595;SDS011;73564;45.026;38.952;2024-03-08T06:11:15;22.95;;;8.93;;
83595;SDS011;73564;45.026;38.952;2024-03-08T06:16:09;14.27;;;7.00;;
83595;SDS011;73564;45.026;38.952;2024-03-08T06:18:35;20.45;;;7.93;;
83595;SDS011;73564;45.026;38.952;2024-03-08T06:21:07;15.40;;;7.30;;
83595;SDS011;73564;45.026;38.952;2024-03-08T06:23:34;13.32;;;6.88;;
83595;SDS011;73564;45.026;38.952;2024-03-08T06:26:07;22.10;;;9.73;;
83595;SDS011;73564;45.026;38.952;2024-03-08T06:28:33;23.42;;;9.75;;
83595;SDS011;73564;45.026;38.952;2024-03-08T06:31:00;23.90;;;8.90;;
83595;SDS011;73564;45.026;38.952;2024-03-08T06:33:26;21.92;;;10.10;;
83595;SDS011;73564;45.026;38.952;2024-03-08T06:35:55;12.90;;;6.13;;
83595;SDS011;73564;45.026;38.952;2024-03-08T06:38:25;23.08;;;9.82;;
83595;SDS011;73564;45.026;38.952;2024-03-08T06:40:52;12.93;;;6.68;;
83595;SDS011;73564;45.026;38.952;2024-03-08T06:43:18;15.32;;;6.85;;
83595;SDS011;73564;45.026;38.952;2024-03-08T06:45:44;18.92;;;8.32;;
83595;SDS011;73564;45.026;38.952;2024-03-08T06:48:14;13.27;;;6.55;;
83595;SDS011;73564;45.026;38.952;2024-03-08T06:50:42;17.20;;;8.00;;
83595;SDS011;73564;45.026;38.952;2024-03-08T06:53:09;13.55;;;7.15;;
83595;SDS011;73564;45.026;38.952;2024-03-08T06:55:34;14.85;;;6.22;;
83595;SDS011;73564;45.026;38.952;2024-03-08T06:58:00;19.48;;;5.28;;
83595;SDS011;73564;45.026;38.952;2024-03-08T07:00:26;16.65;;;6.60;;
83595;SDS011;73564;45.026;38.952;2024-03-08T07:02:54;11.10;;;4.13;;
83595;SDS011;73564;45.026;38.952;2024-03-08T07:05:19;18.90;;;8.00;;
83595;SDS011;73564;45.026;38.952;2024-03-08T07:07:45;12.65;;;6.18;;
83595;SDS011;73564;45.026;38.952;2024-03-08T07:10:13;21.80;;;9.48;;
83595;SDS011;73564;45.026;38.952;2024-03-08T07:12:41;15.57;;;6.22;;
83595;SDS011;73564;45.026;38.952;2024-03-08T07:15:07;17.17;;;7.43;;
83595;SDS011;73564;45.026;38.952;2024-03-08T07:17:39;21.20;;;8.38;;
83595;SDS011;73564;45.026;38.952;2024-03-08T07:20:05;9.23;;;4.38;;
83595;SDS011;73564;45.026;38.952;2024-03-08T07:22:37;17.50;;;6.25;;
83595;SDS011;73564;45.026;38.952;2024-03-08T07:25:06;17.80;;;5.90;;
83595;SDS011;73564;45.026;38.952;2024-03-08T07:27:33;6.43;;;4.40;;
83595;SDS011;73564;45.026;38.952;2024-03-08T07:30:02;16.38;;;6.22;;
83595;SDS011;73564;45.026;38.952;2024-03-08T07:32:28;6.85;;;2.83;;
83595;SDS011;73564;45.026;38.952;2024-03-08T07:34:55;18.73;;;10.23;;
83595;SDS011;73564;45.026;38.952;2024-03-08T07:37:21;19.63;;;7.97;;
83595;SDS011;73564;45.026;38.952;2024-03-08T07:39:47;18.60;;;8.80;;
83595;SDS011;73564;45.026;38.952;2024-03-08T07:42:13;17.63;;;8.93;;
83595;SDS011;73564;45.026;38.952;2024-03-08T07:44:38;28.02;;;7.97;;
83595;SDS011;73564;45.026;38.952;2024-03-08T07:47:05;19.58;;;9.02;;
83595;SDS011;73564;45.026;38.952;2024-03-08T07:49:34;21.38;;;8.75;;
83595;SDS011;73564;45.026;38.952;2024-03-08T07:52:00;15.45;;;5.07;;
83595;SDS011;73564;45.026;38.952;2024-03-08T07:54:26;27.70;;;9.18;;
83595;SDS011;73564;45.026;38.952;2024-03-08T07:56:52;15.35;;;8.18;;
83595;SDS011;73564;45.026;38.952;2024-03-08T07:59:19;20.40;;;7.97;;
83595;SDS011;73564;45.026;38.952;2024-03-08T08:01:46;13.55;;;6.47;;
83595;SDS011;73564;45.026;38.952;2024-03-08T08:04:12;22.33;;;9.50;;
83595;SDS011;73564;45.026;38.952;2024-03-08T08:09:08;21.80;;;7.95;;
83595;SDS011;73564;45.026;38.952;2024-03-08T08:11:42;20.85;;;8.30;;
83595;SDS011;73564;45.026;38.952;2024-03-08T08:14:09;12.32;;;5.85;;
83595;SDS011;73564;45.026;38.952;2024-03-08T08:16:35;10.18;;;4.65;;
83595;SDS011;73564;45.026;38.952;2024-03-08T08:19:06;21.35;;;8.68;;
83595;SDS011;73564;45.026;38.952;2024-03-08T08:21:35;16.55;;;8.25;;
83595;SDS011;73564;45.026;38.952;2024-03-08T08:24:03;20.58;;;8.27;;
83595;SDS011;73564;45.026;38.952;2024-03-08T08:26:30;15.13;;;7.28;;
83595;SDS011;73564;45.026;38.952;2024-03-08T08:28:56;13.77;;;7.70;;
83595;SDS011;73564;45.026;38.952;2024-03-08T08:31:21;11.43;;;5.97;;
83595;SDS011;73564;45.026;38.952;2024-03-08T08:33:48;24.10;;;10.50;;
83595;SDS011;73564;45.026;38.952;2024-03-08T08:36:14;15.50;;;7.53;;
83595;SDS011;73564;45.026;38.952;2024-03-08T08:38:40;17.98;;;7.70;;
83595;SDS011;73564;45.026;38.952;2024-03-08T08:41:09;13.18;;;7.22;;
83595;SDS011;73564;45.026;38.952;2024-03-08T08:43:36;17.77;;;7.65;;
83595;SDS011;73564;45.026;38.952;2024-03-08T08:46:02;19.58;;;7.68;;
83595;SDS011;73564;45.026;38.952;2024-03-08T08:48:28;19.63;;;8.70;;
83595;SDS011;73564;45.026;38.952;2024-03-08T08:50:56;19.20;;;8.50;;
83595;SDS011;73564;45.026;38.952;2024-03-08T08:53:21;17.67;;;8.02;;
83595;SDS011;73564;45.026;38.952;2024-03-08T08:55:47;15.75;;;7.40;;
83595;SDS011;73564;45.026;38.952;2024-03-08T08:58:13;20.05;;;9.13;;
83595;SDS011;73564;45.026;38.952;2024-03-08T09:00:39;15.45;;;7.38;;
83595;SDS011;73564;45.026;38.952;2024-03-08T09:03:05;17.65;;;6.60;;
83595;SDS011;73564;45.026;38.952;2024-03-08T09:05:32;14.07;;;7.47;;
83595;SDS011;73564;45.026;38.952;2024-03-08T09:07:59;17.65;;;8.05;;
83595;SDS011;73564;45.026;38.952;2024-03-08T09:10:26;18.48;;;7.75;;
83595;SDS011;73564;45.026;38.952;2024-03-08T09:12:53;11.68;;;6.15;;
83595;SDS011;73564;45.026;38.952;2024-03-08T09:15:18;18.35;;;7.13;;
83595;SDS011;73564;45.026;38.952;2024-03-08T09:17:46;16.98;;;7.00;;
83595;SDS011;73564;45.026;38.952;2024-03-08T09:20:13;10.38;;;7.07;;
83595;SDS011;73564;45.026;38.952;2024-03-08T09:22:40;11.23;;;6.22;;
83595;SDS011;73564;45.026;38.952;2024-03-08T09:25:09;15.82;;;7.25;;
83595;SDS011;73564;45.026;38.952;2024-03-08T09:27:35;14.82;;;4.22;;
83595;SDS011;73564;45.026;38.952;2024-03-08T09:30:01;22.85;;;10.43;;
83595;SDS011;73564;45.026;38.952;2024-03-08T09:32:27;17.83;;;7.03;;
83595;SDS011;73564;45.026;38.952;2024-03-08T09:34:52;20.23;;;8.32;;
83595;SDS011;73564;45.026;38.952;2024-03-08T09:37:18;16.38;;;7.28;;
83595;SDS011;73564;45.026;38.952;2024-03-08T09:39:44;24.48;;;9.77;;
83595;SDS011;73564;45.026;38.952;2024-03-08T09:42:10;20.60;;;7.22;;
83595;SDS011;73564;45.026;38.952;2024-03-08T09:44:43;20.23;;;8.18;;
83595;SDS011;73564;45.026;38.952;2024-03-08T09:47:14;20.75;;;9.10;;
83595;SDS011;73564;45.026;38.952;2024-03-08T09:49:40;18.58;;;7.60;;
83595;SDS011;73564;45.026;38.952;2024-03-08T09:52:07;17.35;;;7.85;;
83595;SDS011;73564;45.026;38.952;2024-03-08T09:54:34;20.58;;;9.45;;
83595;SDS011;73564;45.026;38.952;2024-03-08T09:57:00;16.25;;;6.53;;
83595;SDS011;73564;45.026;38.952;2024-03-08T09:59:29;20.42;;;7.05;;
83595;SDS011;73564;45.026;38.952;2024-03-08T10:02:03;15.45;;;6.18;;
83595;SDS011;73564;45.026;38.952;2024-03-08T10:04:29;24.77;;;10.50;;
83595;SDS011;73564;45.026;38.952;2024-03-08T10:06:58;22.95;;;8.63;;
83595;SDS011;73564;45.026;38.952;2024-03-08T10:09:25;15.25;;;6.32;;
83595;SDS011;73564;45.026;38.952;2024-03-08T10:11:56;27.00;;;8.95;;
83595;SDS011;73564;45.026;38.952;2024-03-08T10:14:23;14.45;;;7.43;;
83595;SDS011;73564;45.026;38.952;2024-03-08T10:16:52;19.10;;;9.45;;
83595;SDS011;73564;45.026;38.952;2024-03-08T10:19:18;11.45;;;6.05;;
83595;SDS011;73564;45.026;38.952;2024-03-08T10:21:48;12.10;;;7.10;;
83595;SDS011;73564;45.026;38.952;2024-03-08T10:24:14;16.95;;;6.82;;
83595;SDS011;73564;45.026;38.952;2024-03-08T10:26:40;16.30;;;6.18;;
83595;SDS011;73564;45.026;38.952;2024-03-08T10:29:08;23.15;;;8.65;;
83595;SDS011;73564;45.026;38.952;2024-03-08T10:31:34;19.48;;;9.02;;
83595;SDS011;73564;45.026;38.952;2024-03-08T10:34:01;17.40;;;7.50;;
83595;SDS011;73564;45.026;38.952;2024-03-08T10:36:27;20.02;;;8.85;;
83595;SDS011;73564;45.026;38.952;2024-03-08T10:38:53;20.95;;;8.77;;
83595;SDS011;73564;45.026;38.952;2024-03-08T10:41:24;12.68;;;6.85;;
83595;SDS011;73564;45.026;38.952;2024-03-08T10:44:10;16.05;;;8.77;;
83595;SDS011;73564;45.026;38.952;2024-03-08T10:47:01;22.50;;;9.90;;
83595;SDS011;73564;45.026;38.952;2024-03-08T10:52:35;23.75;;;9.77;;
83595;SDS011;73564;45.026;38.952;2024-03-08T10:55:02;23.98;;;12.25;;
83595;SDS011;73564;45.026;38.952;2024-03-08T10:57:28;26.92;;;10.10;;
83595;SDS011;73564;45.026;38.952;2024-03-08T10:59:54;28.25;;;12.27;;
83595;SDS011;73564;45.026;38.952;2024-03-08T11:02:20;20.02;;;8.95;;
83595;SDS011;73564;45.026;38.952;2024-03-08T11:04:47;18.73;;;8.15;;
83595;SDS011;73564;45.026;38.952;2024-03-08T11:07:14;28.63;;;10.77;;
83595;SDS011;73564;45.026;38.952;2024-03-08T11:09:45;24.45;;;10.20;;
83595;SDS011;73564;45.026;38.952;2024-03-08T11:14:56;18.77;;;9.18;;
83595;SDS011;73564;45.026;38.952;2024-03-08T11:20:15;26.50;;;10.25;;
83595;SDS011;73564;45.026;38.952;2024-03-08T11:22:48;22.17;;;9.65;;
83595;SDS011;73564;45.026;38.952;2024-03-08T11:28:19;25.20;;;10.20;;
83595;SDS011;73564;45.026;38.952;2024-03-08T11:30:47;19.67;;;9.23;;
83595;SDS011;73564;45.026;38.952;2024-03-08T11:33:28;17.70;;;7.18;;
83595;SDS011;73564;45.026;38.952;2024-03-08T11:36:12;18.88;;;9.57;;
83595;SDS011;73564;45.026;38.952;2024-03-08T11:38:45;24.48;;;10.88;;
83595;SDS011;73564;45.026;38.952;2024-03-08T11:41:17;22.40;;;10.02;;
83595;SDS011;73564;45.026;38.952;2024-03-08T11:43:48;19.20;;;9.18;;
83595;SDS011;73564;45.026;38.952;2024-03-08T11:46:15;24.58;;;10.18;;
83595;SDS011;73564;45.026;38.952;2024-03-08T11:48:42;24.23;;;10.60;;
83595;SDS011;73564;45.026;38.952;2024-03-08T11:51:13;17.70;;;8.80;;
83595;SDS011;73564;45.026;38.952;2024-03-08T11:53:40;30.30;;;12.60;;
83595;SDS011;73564;45.026;38.952;2024-03-08T11:56:13;27.25;;;11.30;;
83595;SDS011;73564;45.026;38.952;2024-03-08T11:58:39;26.42;;;11.23;;
83595;SDS011;73564;45.026;38.952;2024-03-08T12:01:10;27.38;;;13.07;;
83595;SDS011;73564;45.026;38.952;2024-03-08T12:03:39;24.30;;;10.65;;
83595;SDS011;73564;45.026;38.952;2024-03-08T12:06:07;38.35;;;13.90;;
83595;SDS011;73564;45.026;38.952;2024-03-08T12:08:37;23.13;;;11.15;;
83595;SDS011;73564;45.026;38.952;2024-03-08T12:11:05;15.88;;;8.05;;
83595;SDS011;73564;45.026;38.952;2024-03-08T12:13:32;29.73;;;12.07;;
83595;SDS011;73564;45.026;38.952;2024-03-08T12:15:59;30.98;;;12.43;;
83595;SDS011;73564;45.026;38.952;2024-03-08T12:18:29;25.48;;;10.60;;
83595;SDS011;73564;45.026;38.952;2024-03-08T12:23:34;17.15;;;7.82;;
83595;SDS011;73564;45.026;38.952;2024-03-08T12:28:41;27.95;;;10.85;;
83595;SDS011;73564;45.026;38.952;2024-03-08T12:31:11;26.63;;;12.63;;
83595;SDS011;73564;45.026;38.952;2024-03-08T12:33:37;20.60;;;9.85;;
83595;SDS011;73564;45.026;38.952;2024-03-08T12:36:32;29.80;;;11.10;;
83595;SDS011;73564;45.026;38.952;2024-03-08T12:38:58;18.20;;;10.27;;
83595;SDS011;73564;45.026;38.952;2024-03-08T12:41:24;14.65;;;7.35;;
83595;SDS011;73564;45.026;38.952;2024-03-08T12:43:52;24.08;;;11.80;;
83595;SDS011;73564;45.026;38.952;2024-03-08T12:46:18;22.23;;;13.35;;
83595;SDS011;73564;45.026;38.952;2024-03-08T12:48:45;20.40;;;11.85;;
83595;SDS011;73564;45.026;38.952;2024-03-08T12:51:15;26.92;;;13.38;;
83595;SDS011;73564;45.026;38.952;2024-03-08T12:53:43;20.98;;;12.63;;
83595;SDS011;73564;45.026;38.952;2024-03-08T12:56:10;19.67;;;8.70;;
83595;SDS011;73564;45.026;38.952;2024-03-08T12:58:36;21.50;;;10.13;;
83595;SDS011;73564;45.026;38.952;2024-03-08T13:01:05;24.92;;;10.68;;
83595;SDS011;73564;45.026;38.952;2024-03-08T13:03:33;33.22;;;14.45;;
83595;SDS011;73564;45.026;38.952;2024-03-08T13:06:05;22.83;;;11.00;;
83595;SDS011;73564;45.026;38.952;2024-03-08T13:08:35;27.17;;;13.65;;
83595;SDS011;73564;45.026;38.952;2024-03-08T13:11:04;47.42;;;21.27;;
83595;SDS011;73564;45.026;38.952;2024-03-08T13:13:30;51.65;;;25.17;;
83595;SDS011;73564;45.026;38.952;2024-03-08T13:15:56;51.97;;;26.30;;
83595;SDS011;73564;45.026;38.952;2024-03-08T13:18:25;34.47;;;17.25;;
83595;SDS011;73564;45.026;38.952;2024-03-08T13:20:50;52.13;;;23.05;;
83595;SDS011;73564;45.026;38.952;2024-03-08T13:23:17;28.10;;;13.32;;
83595;SDS011;73564;45.026;38.952;2024-03-08T13:25:43;27.92;;;12.32;;
83595;SDS011;73564;45.026;38.952;2024-03-08T13:28:09;25.50;;;12.63;;
83595;SDS011;73564;45.026;38.952;2024-03-08T13:30:36;36.97;;;15.73;;
83595;SDS011;73564;45.026;38.952;2024-03-08T13:33:02;23.90;;;11.77;;
83595;SDS011;73564;45.026;38.952;2024-03-08T13:35:30;34.10;;;16.17;;
83595;SDS011;73564;45.026;38.952;2024-03-08T13:37:56;27.30;;;13.95;;
83595;SDS011;73564;45.026;38.952;2024-03-08T13:40:22;25.42;;;12.55;;
83595;SDS011;73564;45.026;38.952;2024-03-08T13:42:48;21.58;;;10.48;;
83595;SDS011;73564;45.026;38.952;2024-03-08T13:45:16;22.02;;;11.23;;
83595;SDS011;73564;45.026;38.952;2024-03-08T13:47:49;22.38;;;11.48;;
83595;SDS011;73564;45.026;38.952;2024-03-08T13:50:17;27.58;;;12.55;;
83595;SDS011;73564;45.026;38.952;2024-03-08T13:52:48;27.45;;;11.20;;
83595;SDS011;73564;45.026;38.952;2024-03-08T13:55:19;20.58;;;9.05;;
83595;SDS011;73564;45.026;38.952;2024-03-08T13:57:47;23.35;;;12.10;;
83595;SDS011;73564;45.026;38.952;2024-03-08T14:00:13;22.65;;;10.70;;
83595;SDS011;73564;45.026;38.952;2024-03-08T14:02:40;21.23;;;11.25;;
83595;SDS011;73564;45.026;38.952;2024-03-08T14:05:06;19.90;;;10.35;;
83595;SDS011;73564;45.026;38.952;2024-03-08T14:07:34;18.08;;;9.18;;
83595;SDS011;73564;45.026;38.952;2024-03-08T14:10:00;23.42;;;11.07;;
83595;SDS011;73564;45.026;38.952;2024-03-08T14:12:26;21.25;;;10.52;;
83595;SDS011;73564;45.026;38.952;2024-03-08T14:14:52;20.38;;;9.02;;
83595;SDS011;73564;45.026;38.952;2024-03-08T14:17:18;21.63;;;11.05;;
83595;SDS011;73564;45.026;38.952;2024-03-08T14:19:44;20.98;;;10.23;;
83595;SDS011;73564;45.026;38.952;2024-03-08T14:22:09;21.88;;;10.10;;
83595;SDS011;73564;45.026;38.952;2024-03-08T14:24:42;22.95;;;10.40;;
83595;SDS011;73564;45.026;38.952;2024-03-08T14:27:08;24.70;;;10.70;;
83595;SDS011;73564;45.026;38.952;2024-03-08T14:29:35;22.80;;;9.15;;
83595;SDS011;73564;45.026;38.952;2024-03-08T14:32:01;21.52;;;10.05;;
83595;SDS011;73564;45.026;38.952;2024-03-08T14:34:28;19.45;;;8.65;;
83595;SDS011;73564;45.026;38.952;2024-03-08T14:36:57;16.92;;;8.27;;
83595;SDS011;73564;45.026;38.952;2024-03-08T14:39:24;29.45;;;14.55;;
83595;SDS011;73564;45.026;38.952;2024-03-08T14:41:51;30.15;;;14.32;;